createdAt,value
2016-12-01T00:00:26.973Z,0
2016-12-01T00:01:28.138Z,0
2016-12-01T00:02:27.050Z,0
2016-12-01T00:03:27.099Z,0
2016-12-01T00:04:28.402Z,0
2016-12-01T00:05:26.970Z,0
2016-12-01T00:06:27.005Z,0
2016-12-01T00:07:26.962Z,0
2016-12-01T00:08:27.045Z,0
2016-12-01T00:09:27.191Z,0
2016-12-01T00:10:27.283Z,0
2016-12-01T00:11:27.035Z,0
2016-12-01T00:12:26.984Z,0
2016-12-01T00:13:26.994Z,0
2016-12-01T00:14:26.988Z,0
2016-12-01T00:15:34.990Z,0
2016-12-01T00:16:29.287Z,0
2016-12-01T00:17:27.875Z,0
2016-12-01T00:18:27.267Z,0
2016-12-01T00:19:33.254Z,0
2016-12-01T00:20:27.027Z,0
2016-12-01T00:21:27.773Z,0
2016-12-01T00:22:26.973Z,0
2016-12-01T00:23:31.413Z,0
2016-12-01T00:24:27.257Z,0
2016-12-01T00:25:27.050Z,0
2016-12-01T00:26:27.482Z,0
2016-12-01T00:27:27.730Z,0
2016-12-01T00:28:27.959Z,0
2016-12-01T00:29:27.309Z,0
2016-12-01T00:30:27.019Z,0
2016-12-01T00:31:27.785Z,0
2016-12-01T00:32:27.257Z,0
2016-12-01T00:33:27.259Z,0
2016-12-01T00:34:27.054Z,0
2016-12-01T00:35:27.709Z,0
2016-12-01T00:36:27.166Z,0
2016-12-01T00:37:27.818Z,0
2016-12-01T00:38:27.004Z,0
2016-12-01T00:39:27.687Z,0
2016-12-01T00:40:28.776Z,0
2016-12-01T00:41:27.043Z,0
2016-12-01T00:42:27.137Z,0
2016-12-01T00:43:27.013Z,0
2016-12-01T00:44:34.458Z,0
2016-12-01T00:45:42.064Z,0
2016-12-01T00:46:32.651Z,0
2016-12-01T00:47:27.160Z,0
2016-12-01T00:48:27.210Z,0
2016-12-01T00:49:27.083Z,0
2016-12-01T00:50:27.010Z,0
2016-12-01T00:51:27.328Z,0
2016-12-01T00:52:27.015Z,0
2016-12-01T00:53:27.100Z,0
2016-12-01T00:54:27.379Z,0
2016-12-01T00:55:27.056Z,0
2016-12-01T00:56:27.058Z,0
2016-12-01T00:57:27.139Z,0
2016-12-01T00:58:34.641Z,0
2016-12-01T00:59:27.268Z,0
2016-12-01T01:00:27.088Z,0
2016-12-01T01:01:27.033Z,0
2016-12-01T01:02:27.319Z,0
2016-12-01T01:03:27.039Z,0
2016-12-01T01:04:27.036Z,0
2016-12-01T01:05:27.031Z,0
2016-12-01T01:06:27.032Z,0
2016-12-01T01:07:27.059Z,0
2016-12-01T01:08:27.039Z,0
2016-12-01T01:09:27.241Z,0
2016-12-01T01:10:27.394Z,0
2016-12-01T01:11:27.027Z,0
2016-12-01T01:12:27.107Z,0
2016-12-01T01:13:27.070Z,0
2016-12-01T01:14:27.278Z,0
2016-12-01T01:15:27.144Z,0
2016-12-01T01:16:27.230Z,0
2016-12-01T01:17:27.143Z,0
2016-12-01T01:18:27.018Z,0
2016-12-01T01:19:27.256Z,0
2016-12-01T01:20:27.120Z,0
2016-12-01T01:21:27.307Z,0
2016-12-01T01:22:27.072Z,0
2016-12-01T01:23:27.091Z,0
2016-12-01T01:24:27.154Z,0
2016-12-01T01:25:27.062Z,0
2016-12-01T01:26:27.223Z,0
2016-12-01T01:27:27.356Z,0
2016-12-01T01:28:27.056Z,0
2016-12-01T01:29:27.078Z,0
2016-12-01T01:30:28.301Z,0
2016-12-01T01:31:27.063Z,0
2016-12-01T01:32:27.066Z,0
2016-12-01T01:33:27.073Z,0
2016-12-01T01:34:27.095Z,0
2016-12-01T01:35:27.078Z,0
2016-12-01T01:36:27.418Z,0
2016-12-01T01:37:27.437Z,0
2016-12-01T01:38:27.014Z,0
2016-12-01T01:39:28.055Z,0
2016-12-01T01:40:27.034Z,0
2016-12-01T01:41:27.071Z,0
2016-12-01T01:42:27.829Z,0
2016-12-01T01:43:27.100Z,0
2016-12-01T01:44:27.193Z,0
2016-12-01T01:45:27.227Z,0
2016-12-01T01:46:27.195Z,0
2016-12-01T01:47:27.132Z,0
2016-12-01T01:48:27.358Z,0
2016-12-01T01:49:27.429Z,0
2016-12-01T01:50:27.163Z,0
2016-12-01T01:51:27.096Z,0
2016-12-01T01:52:27.162Z,0
2016-12-01T01:53:27.314Z,0
2016-12-01T01:54:27.132Z,0
2016-12-01T01:55:27.138Z,0
2016-12-01T01:56:27.079Z,0
2016-12-01T01:57:27.402Z,0
2016-12-01T01:58:27.068Z,0
2016-12-01T01:59:27.443Z,0
2016-12-01T02:00:27.217Z,0
2016-12-01T02:01:27.140Z,0
2016-12-01T02:02:27.333Z,0
2016-12-01T02:03:27.164Z,0
2016-12-01T02:04:27.289Z,0
2016-12-01T02:05:27.192Z,0
2016-12-01T02:06:27.080Z,0
2016-12-01T02:07:27.093Z,0
2016-12-01T02:08:27.062Z,0
2016-12-01T02:09:27.805Z,0
2016-12-01T02:10:27.071Z,0
2016-12-01T02:11:27.093Z,0
2016-12-01T02:12:27.137Z,0
2016-12-01T02:13:27.101Z,0
2016-12-01T02:14:27.079Z,0
2016-12-01T02:15:27.107Z,0
2016-12-01T02:16:27.166Z,0
2016-12-01T02:17:27.161Z,0
2016-12-01T02:18:27.161Z,0
2016-12-01T02:19:27.132Z,0
2016-12-01T02:20:27.110Z,0
2016-12-01T02:21:27.326Z,0
2016-12-01T02:22:27.416Z,0
2016-12-01T02:23:27.101Z,0
2016-12-01T02:24:27.111Z,0
2016-12-01T02:25:27.093Z,0
2016-12-01T02:26:27.635Z,0
2016-12-01T02:27:27.168Z,0
2016-12-01T02:28:27.392Z,0
2016-12-01T02:29:28.281Z,0
2016-12-01T02:30:27.306Z,0
2016-12-01T02:31:27.295Z,0
2016-12-01T02:32:27.363Z,0
2016-12-01T02:33:27.151Z,0
2016-12-01T02:34:27.293Z,0
2016-12-01T02:35:27.095Z,0
2016-12-01T02:36:28.015Z,0
2016-12-01T02:37:27.100Z,0
2016-12-01T02:38:27.845Z,0
2016-12-01T02:39:27.350Z,0
2016-12-01T02:40:27.142Z,0
2016-12-01T02:41:27.171Z,0
2016-12-01T02:42:27.138Z,0
2016-12-01T02:43:27.226Z,0
2016-12-01T02:44:27.265Z,0
2016-12-01T02:45:27.472Z,0
2016-12-01T02:46:27.313Z,0
2016-12-01T02:47:27.404Z,0
2016-12-01T02:48:27.362Z,0
2016-12-01T02:49:27.985Z,0
2016-12-01T02:50:27.196Z,0
2016-12-01T02:51:27.249Z,0
2016-12-01T02:52:27.197Z,0
2016-12-01T02:53:27.425Z,0
2016-12-01T02:54:27.438Z,0
2016-12-01T02:55:27.144Z,0
2016-12-01T02:56:27.907Z,0
2016-12-01T02:57:27.154Z,0
2016-12-01T02:58:27.503Z,0
2016-12-01T02:59:27.178Z,0
2016-12-01T03:00:27.302Z,0
2016-12-01T03:01:27.216Z,0
2016-12-01T03:02:27.199Z,0
2016-12-01T03:03:27.126Z,0
2016-12-01T03:04:27.348Z,0
2016-12-01T03:05:27.166Z,0
2016-12-01T03:06:27.235Z,0
2016-12-01T03:07:27.189Z,0
2016-12-01T03:08:27.149Z,0
2016-12-01T03:09:27.137Z,0
2016-12-01T03:10:27.484Z,0
2016-12-01T03:11:27.669Z,0
2016-12-01T03:12:27.170Z,0
2016-12-01T03:13:27.605Z,0
2016-12-01T03:14:28.468Z,0
2016-12-01T03:15:27.170Z,0
2016-12-01T03:16:27.183Z,0
2016-12-01T03:17:27.154Z,0
2016-12-01T03:18:28.043Z,0
2016-12-01T03:19:27.132Z,0
2016-12-01T03:20:27.140Z,0
2016-12-01T03:21:27.190Z,0
2016-12-01T03:22:27.184Z,0
2016-12-01T03:23:27.211Z,0
2016-12-01T03:24:27.181Z,0
2016-12-01T03:25:27.204Z,0
2016-12-01T03:26:27.315Z,0
2016-12-01T03:27:27.288Z,0
2016-12-01T03:28:27.280Z,0
2016-12-01T03:29:27.162Z,0
2016-12-01T03:30:27.218Z,0
2016-12-01T03:31:27.401Z,0
2016-12-01T03:32:27.308Z,0
2016-12-01T03:33:27.299Z,0
2016-12-01T03:34:27.178Z,0
2016-12-01T03:35:27.115Z,0
2016-12-01T03:36:29.002Z,0
2016-12-01T03:37:29.040Z,0
2016-12-01T03:38:27.142Z,0
2016-12-01T03:39:27.133Z,0
2016-12-01T03:40:27.457Z,0
2016-12-01T03:41:28.159Z,0
2016-12-01T03:42:27.188Z,0
2016-12-01T03:43:27.296Z,0
2016-12-01T03:44:27.175Z,0
2016-12-01T03:45:27.180Z,0
2016-12-01T03:46:27.286Z,0
2016-12-01T03:47:27.173Z,0
2016-12-01T03:48:27.149Z,0
2016-12-01T03:49:27.167Z,0
2016-12-01T03:50:27.197Z,0
2016-12-01T03:51:27.685Z,0
2016-12-01T03:52:27.155Z,0
2016-12-01T03:53:27.202Z,0
2016-12-01T03:54:27.339Z,0
2016-12-01T03:55:27.214Z,0
2016-12-01T03:56:27.241Z,0
2016-12-01T03:57:27.155Z,0
2016-12-01T03:58:27.163Z,0
2016-12-01T03:59:27.195Z,0
2016-12-01T04:00:27.179Z,0
2016-12-01T04:01:27.173Z,0
2016-12-01T04:02:27.150Z,0
2016-12-01T04:03:27.198Z,0
2016-12-01T04:04:27.177Z,0
2016-12-01T04:05:27.139Z,0
2016-12-01T04:06:27.149Z,0
2016-12-01T04:07:27.184Z,0
2016-12-01T04:08:27.148Z,0
2016-12-01T04:09:27.152Z,0
2016-12-01T04:10:27.153Z,0
2016-12-01T04:11:27.167Z,0
2016-12-01T04:12:27.128Z,0
2016-12-01T04:13:27.175Z,0
2016-12-01T04:14:27.107Z,0
2016-12-01T04:15:27.117Z,0
2016-12-01T04:16:27.182Z,0
2016-12-01T04:17:27.102Z,0
2016-12-01T04:18:27.118Z,0
2016-12-01T04:19:27.109Z,0
2016-12-01T04:20:27.196Z,0
2016-12-01T04:21:27.158Z,0
2016-12-01T04:22:27.127Z,0
2016-12-01T04:23:27.137Z,0
2016-12-01T04:24:27.142Z,0
2016-12-01T04:25:27.121Z,0
2016-12-01T04:26:27.135Z,0
2016-12-01T04:27:27.149Z,0
2016-12-01T04:28:27.158Z,0
2016-12-01T04:29:27.160Z,0
2016-12-01T04:30:27.168Z,0
2016-12-01T04:31:27.181Z,0
2016-12-01T04:32:27.168Z,0
2016-12-01T04:33:27.182Z,0
2016-12-01T04:34:27.129Z,0
2016-12-01T04:35:27.172Z,0
2016-12-01T04:36:27.171Z,0
2016-12-01T04:37:27.159Z,0
2016-12-01T04:38:27.143Z,0
2016-12-01T04:39:27.143Z,0
2016-12-01T04:40:27.138Z,0
2016-12-01T04:41:27.146Z,0
2016-12-01T04:42:27.120Z,0
2016-12-01T04:43:27.172Z,0
2016-12-01T04:44:27.119Z,0
2016-12-01T04:45:27.128Z,0
2016-12-01T04:46:27.162Z,0
2016-12-01T04:47:27.140Z,0
2016-12-01T04:48:27.163Z,0
2016-12-01T04:49:27.143Z,0
2016-12-01T04:50:27.145Z,0
2016-12-01T04:51:27.178Z,0
2016-12-01T04:52:27.151Z,0
2016-12-01T04:53:27.180Z,0
2016-12-01T04:54:27.142Z,0
2016-12-01T04:55:27.153Z,0
2016-12-01T04:56:27.167Z,0
2016-12-01T04:57:27.168Z,0
2016-12-01T04:58:27.175Z,0
2016-12-01T04:59:27.148Z,0
2016-12-01T05:00:27.170Z,0
2016-12-01T05:01:27.146Z,0
2016-12-01T05:02:27.191Z,0
2016-12-01T05:03:27.160Z,0
2016-12-01T05:04:27.152Z,0
2016-12-01T05:05:27.150Z,0
2016-12-01T05:06:27.194Z,0
2016-12-01T05:07:27.189Z,0
2016-12-01T05:08:27.178Z,0
2016-12-01T05:09:27.183Z,0
2016-12-01T05:10:27.206Z,0
2016-12-01T05:11:27.184Z,0
2016-12-01T05:12:27.165Z,0
2016-12-01T05:13:27.198Z,0
2016-12-01T05:14:27.159Z,0
2016-12-01T05:15:27.184Z,0
2016-12-01T05:16:27.164Z,0
2016-12-01T05:17:27.151Z,0
2016-12-01T05:18:27.177Z,0
2016-12-01T05:19:27.194Z,0
2016-12-01T05:20:27.198Z,0
2016-12-01T05:21:27.171Z,0
2016-12-01T05:22:27.177Z,0
2016-12-01T05:23:27.195Z,0
2016-12-01T05:24:27.893Z,0
2016-12-01T05:25:27.274Z,0
2016-12-01T05:26:50.327Z,0
2016-12-01T05:28:24.730Z,0
2016-12-01T05:29:12.386Z,0
2016-12-01T05:30:05.259Z,0
2016-12-01T05:31:14.593Z,0
2016-12-01T05:31:58.337Z,0
2016-12-01T05:32:48.992Z,0
2016-12-01T05:33:50.568Z,0
2016-12-01T05:34:48.701Z,0
2016-12-01T05:35:45.999Z,0
2016-12-01T05:36:56.709Z,0
2016-12-01T05:37:54.594Z,0
2016-12-01T05:38:50.909Z,0
2016-12-01T05:40:40.983Z,0
2016-12-01T05:41:57.771Z,0
2016-12-01T05:42:57.659Z,0
2016-12-01T05:43:57.675Z,0
2016-12-01T05:44:57.687Z,0
2016-12-01T05:45:57.673Z,0
2016-12-01T05:46:57.725Z,0
2016-12-01T05:47:57.680Z,0
2016-12-01T05:48:57.677Z,0
2016-12-01T05:49:57.689Z,0
2016-12-01T05:50:57.683Z,0
2016-12-01T05:51:57.702Z,0
2016-12-01T05:52:57.703Z,0
2016-12-01T05:53:57.697Z,0
2016-12-01T05:54:57.695Z,0
2016-12-01T05:55:57.697Z,0
2016-12-01T05:56:57.715Z,0
2016-12-01T05:57:57.710Z,0
2016-12-01T05:58:57.700Z,0
2016-12-01T05:59:58.338Z,0
2016-12-01T06:00:57.707Z,0
2016-12-01T06:01:57.772Z,0
2016-12-01T06:02:57.735Z,0
2016-12-01T06:03:57.757Z,0
2016-12-01T06:04:57.733Z,0
2016-12-01T06:05:57.728Z,0
2016-12-01T06:06:57.715Z,0
2016-12-01T06:07:57.693Z,0
2016-12-01T06:08:57.703Z,0
2016-12-01T06:09:57.709Z,0
2016-12-01T06:10:57.687Z,0
2016-12-01T06:11:57.727Z,0
2016-12-01T06:12:57.742Z,0
2016-12-01T06:13:57.693Z,0
2016-12-01T06:14:57.743Z,0
2016-12-01T06:15:57.830Z,0
2016-12-01T06:16:57.728Z,0
2016-12-01T06:17:57.701Z,0
2016-12-01T06:18:57.704Z,0
2016-12-01T06:19:57.740Z,0
2016-12-01T06:20:57.746Z,0
2016-12-01T06:21:57.781Z,0
2016-12-01T06:22:57.750Z,0
2016-12-01T06:23:57.691Z,0
2016-12-01T06:24:57.750Z,0
2016-12-01T06:25:57.824Z,0
2016-12-01T06:26:57.731Z,0
2016-12-01T06:27:57.741Z,0
2016-12-01T06:28:57.730Z,0
2016-12-01T06:29:57.737Z,0
2016-12-01T06:30:57.774Z,0
2016-12-01T06:31:57.755Z,0
2016-12-01T06:32:57.747Z,0
2016-12-01T06:33:57.710Z,0
2016-12-01T06:34:57.737Z,0
2016-12-01T06:35:57.797Z,0
2016-12-01T06:36:57.743Z,0
2016-12-01T06:37:57.743Z,0
2016-12-01T06:38:57.720Z,0
2016-12-01T06:39:57.727Z,0
2016-12-01T06:40:57.742Z,0
2016-12-01T06:41:57.763Z,0
2016-12-01T06:42:57.772Z,0
2016-12-01T06:43:57.723Z,0
2016-12-01T06:44:57.774Z,0
2016-12-01T06:45:57.751Z,0
2016-12-01T06:46:57.737Z,0
2016-12-01T06:47:57.738Z,0
2016-12-01T06:48:57.749Z,0
2016-12-01T06:49:57.743Z,0
2016-12-01T06:50:57.732Z,0
2016-12-01T06:51:57.742Z,0
2016-12-01T06:52:57.786Z,0
2016-12-01T06:53:57.754Z,0
2016-12-01T06:54:57.795Z,0
2016-12-01T06:55:57.769Z,0
2016-12-01T06:56:57.757Z,0
2016-12-01T06:57:57.729Z,0
2016-12-01T06:58:57.719Z,0
2016-12-01T06:59:57.737Z,0
2016-12-01T07:00:57.930Z,0
2016-12-01T07:01:57.893Z,0
2016-12-01T07:02:57.746Z,0
2016-12-01T07:03:57.754Z,0
2016-12-01T07:04:58.170Z,0
2016-12-01T07:05:57.761Z,0
2016-12-01T07:06:57.774Z,0
2016-12-01T07:07:57.761Z,0
2016-12-01T07:08:57.794Z,0
2016-12-01T07:09:57.785Z,0
2016-12-01T07:10:57.727Z,0
2016-12-01T07:11:57.748Z,0
2016-12-01T07:12:57.746Z,0
2016-12-01T07:13:57.753Z,0
2016-12-01T07:14:57.804Z,0
2016-12-01T07:15:57.741Z,0
2016-12-01T07:16:57.760Z,0
2016-12-01T07:17:57.775Z,0
2016-12-01T07:18:57.761Z,0
2016-12-01T07:19:57.798Z,0
2016-12-01T07:20:57.733Z,0
2016-12-01T07:21:57.789Z,0
2016-12-01T07:22:57.746Z,0
2016-12-01T07:23:57.751Z,0
2016-12-01T07:24:57.769Z,0
2016-12-01T07:25:57.774Z,0
2016-12-01T07:26:57.772Z,0
2016-12-01T07:27:57.797Z,0
2016-12-01T07:28:57.770Z,0
2016-12-01T07:29:57.776Z,0
2016-12-01T07:30:57.787Z,0
2016-12-01T07:31:57.765Z,0
2016-12-01T07:32:57.743Z,0
2016-12-01T07:33:57.767Z,0
2016-12-01T07:34:57.770Z,0
2016-12-01T07:35:57.772Z,5
2016-12-01T07:36:57.787Z,5
2016-12-01T07:37:57.776Z,5
2016-12-01T07:38:57.799Z,5
2016-12-01T07:39:57.804Z,5
2016-12-01T07:40:57.756Z,5
2016-12-01T07:41:57.794Z,5
2016-12-01T07:42:57.785Z,5
2016-12-01T07:43:57.784Z,5
2016-12-01T07:44:57.792Z,5
2016-12-01T07:45:57.785Z,5
2016-12-01T07:46:57.822Z,5
2016-12-01T07:47:57.799Z,5
2016-12-01T07:48:57.803Z,5
2016-12-01T07:49:57.858Z,5
2016-12-01T07:50:57.797Z,5
2016-12-01T07:51:57.826Z,5
2016-12-01T07:52:57.813Z,10
2016-12-01T07:53:57.790Z,10
2016-12-01T07:54:57.788Z,10
2016-12-01T07:55:57.813Z,10
2016-12-01T07:56:57.842Z,15
2016-12-01T07:57:57.786Z,15
2016-12-01T07:58:57.830Z,15
2016-12-01T07:59:57.812Z,15
2016-12-01T08:00:57.813Z,15
2016-12-01T08:01:57.824Z,15
2016-12-01T08:02:57.850Z,15
2016-12-01T08:03:57.792Z,15
2016-12-01T08:04:57.803Z,20
2016-12-01T08:05:57.832Z,30
2016-12-01T08:06:57.801Z,30
2016-12-01T08:07:57.822Z,25
2016-12-01T08:08:57.810Z,30
2016-12-01T08:09:57.786Z,25
2016-12-01T08:10:57.835Z,30
2016-12-01T08:11:57.861Z,30
2016-12-01T08:12:57.815Z,25
2016-12-01T08:13:57.816Z,30
2016-12-01T08:14:57.814Z,25
2016-12-01T08:15:57.813Z,20
2016-12-01T08:16:57.790Z,20
2016-12-01T08:17:57.814Z,20
2016-12-01T08:18:57.897Z,20
2016-12-01T08:19:57.787Z,25
2016-12-01T08:20:57.793Z,35
2016-12-01T08:21:57.814Z,25
2016-12-01T08:22:57.766Z,25
2016-12-01T08:23:57.806Z,25
2016-12-01T08:24:57.799Z,25
2016-12-01T08:25:57.844Z,25
2016-12-01T08:26:57.797Z,20
2016-12-01T08:27:57.829Z,25
2016-12-01T08:28:57.821Z,30
2016-12-01T08:29:57.797Z,35
2016-12-01T08:30:57.816Z,30
2016-12-01T08:31:57.788Z,25
2016-12-01T08:32:57.831Z,20
2016-12-01T08:33:57.873Z,15
2016-12-01T08:34:57.800Z,20
2016-12-01T08:35:57.874Z,25
2016-12-01T08:36:57.827Z,30
2016-12-01T08:37:57.813Z,40
2016-12-01T08:38:57.870Z,40
2016-12-01T08:39:57.857Z,35
2016-12-01T08:40:57.800Z,35
2016-12-01T08:41:57.827Z,35
2016-12-01T08:42:57.787Z,35
2016-12-01T08:43:57.808Z,35
2016-12-01T08:44:57.817Z,45
2016-12-01T08:45:57.868Z,50
2016-12-01T08:46:57.807Z,65
2016-12-01T08:47:57.854Z,70
2016-12-01T08:48:57.800Z,70
2016-12-01T08:49:57.823Z,60
2016-12-01T08:50:57.890Z,80
2016-12-01T08:51:57.877Z,85
2016-12-01T08:52:57.845Z,80
2016-12-01T08:53:57.852Z,80
2016-12-01T08:54:57.806Z,85
2016-12-01T08:55:57.894Z,80
2016-12-01T08:56:57.881Z,70
2016-12-01T08:57:57.887Z,65
2016-12-01T08:58:58.259Z,70
2016-12-01T08:59:58.086Z,75
2016-12-01T09:00:57.912Z,60
2016-12-01T09:01:57.867Z,55
2016-12-01T09:02:57.943Z,55
2016-12-01T09:03:57.901Z,65
2016-12-01T09:04:58.135Z,55
2016-12-01T09:05:57.843Z,50
2016-12-01T09:06:57.934Z,55
2016-12-01T09:07:57.897Z,55
2016-12-01T09:08:58.081Z,50
2016-12-01T09:09:57.971Z,45
2016-12-01T09:10:58.389Z,50
2016-12-01T09:11:57.891Z,50
2016-12-01T09:12:58.985Z,50
2016-12-01T09:13:57.996Z,40
2016-12-01T09:14:57.964Z,45
2016-12-01T09:15:58.156Z,45
2016-12-01T09:16:57.917Z,35
2016-12-01T09:17:57.897Z,40
2016-12-01T09:18:57.870Z,40
2016-12-01T09:19:57.976Z,40
2016-12-01T09:20:57.877Z,55
2016-12-01T09:21:58.105Z,60
2016-12-01T09:22:57.936Z,55
2016-12-01T09:23:57.878Z,55
2016-12-01T09:24:58.006Z,65
2016-12-01T09:25:58.285Z,65
2016-12-01T09:26:58.840Z,60
2016-12-01T09:27:58.808Z,55
2016-12-01T09:28:58.035Z,60
2016-12-01T09:29:58.174Z,60
2016-12-01T09:30:57.890Z,55
2016-12-01T09:31:58.105Z,55
2016-12-01T09:32:57.888Z,50
2016-12-01T09:33:58.051Z,50
2016-12-01T09:34:57.886Z,50
2016-12-01T09:35:57.941Z,55
2016-12-01T09:36:57.944Z,55
2016-12-01T09:37:57.848Z,50
2016-12-01T09:38:58.146Z,50
2016-12-01T09:39:58.536Z,50
2016-12-01T09:40:59.132Z,50
2016-12-01T09:41:57.902Z,55
2016-12-01T09:42:58.232Z,50
2016-12-01T09:43:57.904Z,45
2016-12-01T09:44:58.015Z,45
2016-12-01T09:45:58.035Z,50
2016-12-01T09:46:57.983Z,50
2016-12-01T09:47:57.876Z,45
2016-12-01T09:48:58.101Z,40
2016-12-01T09:49:57.901Z,40
2016-12-01T09:50:57.895Z,40
2016-12-01T09:51:58.076Z,40
2016-12-01T09:52:57.869Z,40
2016-12-01T09:53:58.748Z,45
2016-12-01T09:54:57.921Z,50
2016-12-01T09:55:57.860Z,45
2016-12-01T09:56:57.859Z,45
2016-12-01T09:57:57.863Z,50
2016-12-01T09:58:57.895Z,50
2016-12-01T09:59:57.953Z,50
2016-12-01T10:00:57.835Z,50
2016-12-01T10:01:57.876Z,50
2016-12-01T10:02:58.839Z,55
2016-12-01T10:03:58.022Z,50
2016-12-01T10:04:58.018Z,45
2016-12-01T10:05:57.930Z,40
2016-12-01T10:06:57.943Z,40
2016-12-01T10:07:57.873Z,40
2016-12-01T10:08:57.983Z,45
2016-12-01T10:09:57.932Z,45
2016-12-01T10:10:58.012Z,35
2016-12-01T10:11:58.071Z,50
2016-12-01T10:12:57.993Z,55
2016-12-01T10:13:57.971Z,50
2016-12-01T10:14:57.865Z,50
2016-12-01T10:15:57.887Z,50
2016-12-01T10:16:57.923Z,50
2016-12-01T10:17:57.929Z,55
2016-12-01T10:18:59.073Z,55
2016-12-01T10:19:57.880Z,50
2016-12-01T10:20:57.891Z,55
2016-12-01T10:21:58.012Z,55
2016-12-01T10:22:57.942Z,75
2016-12-01T10:23:58.459Z,65
2016-12-01T10:24:57.891Z,55
2016-12-01T10:25:57.875Z,55
2016-12-01T10:26:57.889Z,55
2016-12-01T10:27:58.014Z,55
2016-12-01T10:28:58.760Z,60
2016-12-01T10:29:58.026Z,75
2016-12-01T10:30:57.880Z,65
2016-12-01T10:31:57.915Z,55
2016-12-01T10:32:58.026Z,50
2016-12-01T10:33:57.952Z,55
2016-12-01T10:34:57.908Z,65
2016-12-01T10:35:58.326Z,55
2016-12-01T10:36:58.160Z,55
2016-12-01T10:37:58.171Z,55
2016-12-01T10:38:57.909Z,50
2016-12-01T10:39:57.928Z,55
2016-12-01T10:40:57.992Z,65
2016-12-01T10:41:58.056Z,65
2016-12-01T10:42:58.679Z,55
2016-12-01T10:43:57.882Z,55
2016-12-01T10:44:57.890Z,55
2016-12-01T10:45:57.881Z,60
2016-12-01T10:46:57.948Z,55
2016-12-01T10:47:57.927Z,50
2016-12-01T10:48:57.977Z,55
2016-12-01T10:49:57.935Z,60
2016-12-01T10:50:57.935Z,55
2016-12-01T10:51:57.892Z,55
2016-12-01T10:52:57.951Z,55
2016-12-01T10:53:57.896Z,55
2016-12-01T10:54:57.986Z,50
2016-12-01T10:55:58.127Z,55
2016-12-01T10:56:57.913Z,65
2016-12-01T10:57:57.908Z,70
2016-12-01T10:58:58.926Z,75
2016-12-01T10:59:57.933Z,70
2016-12-01T11:00:57.925Z,90
2016-12-01T11:01:57.923Z,95
2016-12-01T11:02:58.024Z,80
2016-12-01T11:03:58.727Z,90
2016-12-01T11:04:57.970Z,85
2016-12-01T11:05:58.013Z,95
2016-12-01T11:06:58.136Z,100
2016-12-01T11:07:58.328Z,95
2016-12-01T11:08:57.978Z,120
2016-12-01T11:09:57.913Z,115
2016-12-01T11:10:57.961Z,105
2016-12-01T11:11:57.911Z,115
2016-12-01T11:12:58.069Z,120
2016-12-01T11:13:57.911Z,110
2016-12-01T11:14:58.037Z,100
2016-12-01T11:15:58.748Z,100
2016-12-01T11:16:57.958Z,120
2016-12-01T11:17:58.180Z,140
2016-12-01T11:18:58.003Z,135
2016-12-01T11:19:57.937Z,125
2016-12-01T11:20:57.934Z,120
2016-12-01T11:21:58.254Z,115
2016-12-01T11:22:58.239Z,125
2016-12-01T11:23:58.170Z,120
2016-12-01T11:24:57.956Z,120
2016-12-01T11:25:57.967Z,130
2016-12-01T11:26:58.068Z,115
2016-12-01T11:27:58.020Z,110
2016-12-01T11:28:57.892Z,135
2016-12-01T11:29:58.103Z,145
2016-12-01T11:30:58.247Z,140
2016-12-01T11:31:58.996Z,105
2016-12-01T11:32:57.910Z,100
2016-12-01T11:33:57.977Z,115
2016-12-01T11:34:57.969Z,145
2016-12-01T11:35:58.080Z,150
2016-12-01T11:36:58.214Z,120
2016-12-01T11:37:57.988Z,100
2016-12-01T11:38:58.016Z,90
2016-12-01T11:39:57.949Z,105
2016-12-01T11:40:57.974Z,135
2016-12-01T11:41:57.940Z,150
2016-12-01T11:42:57.948Z,140
2016-12-01T11:43:57.948Z,110
2016-12-01T11:44:58.093Z,100
2016-12-01T11:45:58.015Z,95
2016-12-01T11:46:58.465Z,95
2016-12-01T11:47:58.063Z,80
2016-12-01T11:48:57.984Z,95
2016-12-01T11:49:57.976Z,105
2016-12-01T11:50:57.929Z,90
2016-12-01T11:51:57.979Z,90
2016-12-01T11:52:57.930Z,75
2016-12-01T11:53:57.927Z,70
2016-12-01T11:54:58.000Z,80
2016-12-01T11:55:58.003Z,100
2016-12-01T11:56:57.982Z,110
2016-12-01T11:57:57.933Z,95
2016-12-01T11:58:57.946Z,80
2016-12-01T11:59:57.904Z,75
2016-12-01T12:00:57.973Z,90
2016-12-01T12:01:57.963Z,80
2016-12-01T12:02:57.989Z,60
2016-12-01T12:03:57.975Z,55
2016-12-01T12:04:57.981Z,60
2016-12-01T12:05:57.973Z,60
2016-12-01T12:06:58.028Z,60
2016-12-01T12:07:58.049Z,65
2016-12-01T12:08:57.986Z,65
2016-12-01T12:09:57.959Z,55
2016-12-01T12:10:58.020Z,50
2016-12-01T12:11:57.986Z,50
2016-12-01T12:12:58.000Z,50
2016-12-01T12:13:58.789Z,50
2016-12-01T12:14:58.019Z,55
2016-12-01T12:15:57.988Z,45
2016-12-01T12:16:58.081Z,40
2016-12-01T12:17:57.969Z,40
2016-12-01T12:18:57.959Z,50
2016-12-01T12:19:58.006Z,55
2016-12-01T12:20:57.984Z,70
2016-12-01T12:21:57.992Z,55
2016-12-01T12:22:57.962Z,60
2016-12-01T12:23:57.982Z,50
2016-12-01T12:24:58.004Z,50
2016-12-01T12:25:58.003Z,45
2016-12-01T12:26:58.001Z,45
2016-12-01T12:27:59.264Z,55
2016-12-01T12:28:57.996Z,55
2016-12-01T12:29:57.988Z,50
2016-12-01T12:30:57.960Z,50
2016-12-01T12:31:58.699Z,65
2016-12-01T12:32:58.025Z,65
2016-12-01T12:33:57.948Z,70
2016-12-01T12:34:58.002Z,65
2016-12-01T12:35:57.956Z,65
2016-12-01T12:36:58.120Z,65
2016-12-01T12:37:58.071Z,65
2016-12-01T12:38:58.290Z,60
2016-12-01T12:39:57.976Z,55
2016-12-01T12:40:57.977Z,60
2016-12-01T12:41:58.749Z,60
2016-12-01T12:42:57.966Z,60
2016-12-01T12:43:58.427Z,55
2016-12-01T12:44:57.964Z,50
2016-12-01T12:45:58.074Z,60
2016-12-01T12:46:58.079Z,60
2016-12-01T12:47:57.979Z,60
2016-12-01T12:48:58.580Z,65
2016-12-01T12:49:58.145Z,65
2016-12-01T12:50:58.340Z,60
2016-12-01T12:51:58.051Z,55
2016-12-01T12:52:58.042Z,55
2016-12-01T12:53:58.033Z,55
2016-12-01T12:54:58.156Z,45
2016-12-01T12:55:58.103Z,45
2016-12-01T12:56:58.014Z,50
2016-12-01T12:57:58.001Z,55
2016-12-01T12:58:57.965Z,65
2016-12-01T12:59:58.082Z,70
2016-12-01T13:00:58.063Z,50
2016-12-01T13:01:58.093Z,50
2016-12-01T13:02:58.025Z,45
2016-12-01T13:03:58.080Z,55
2016-12-01T13:04:58.247Z,55
2016-12-01T13:05:58.042Z,55
2016-12-01T13:06:58.121Z,50
2016-12-01T13:07:58.180Z,55
2016-12-01T13:08:58.144Z,55
2016-12-01T13:09:58.048Z,70
2016-12-01T13:10:58.046Z,80
2016-12-01T13:16:24.402Z,70
2016-12-01T13:16:34.335Z,70
2016-12-01T13:17:34.357Z,65
2016-12-01T13:18:34.380Z,65
2016-12-01T13:19:34.606Z,60
2016-12-01T13:20:34.334Z,70
2016-12-01T13:21:34.365Z,70
2016-12-01T13:22:34.479Z,80
2016-12-01T13:23:34.442Z,60
2016-12-01T13:24:34.863Z,60
2016-12-01T13:25:34.437Z,60
2016-12-01T13:26:34.356Z,65
2016-12-01T13:27:34.362Z,50
2016-12-01T13:28:34.340Z,55
2016-12-01T13:29:34.330Z,55
2016-12-01T13:30:34.354Z,55
2016-12-01T13:31:34.343Z,55
2016-12-01T13:32:34.470Z,60
2016-12-01T13:33:34.379Z,80
2016-12-01T13:34:34.372Z,80
2016-12-01T13:35:34.336Z,65
2016-12-01T13:36:34.361Z,45
2016-12-01T13:37:34.391Z,40
2016-12-01T13:38:34.359Z,40
2016-12-01T13:39:34.418Z,40
2016-12-01T13:40:34.345Z,45
2016-12-01T13:41:34.344Z,60
2016-12-01T13:42:34.406Z,55
2016-12-01T13:43:34.390Z,45
2016-12-01T13:44:34.406Z,40
2016-12-01T13:45:34.383Z,35
2016-12-01T13:46:34.334Z,35
2016-12-01T13:47:34.367Z,35
2016-12-01T13:48:34.434Z,45
2016-12-01T13:49:34.368Z,45
2016-12-01T13:50:34.708Z,60
2016-12-01T13:51:34.403Z,55
2016-12-01T13:52:34.393Z,65
2016-12-01T13:53:35.030Z,60
2016-12-01T13:54:34.508Z,50
2016-12-01T13:55:34.419Z,35
2016-12-01T13:56:34.488Z,25
2016-12-01T13:57:34.420Z,25
2016-12-01T13:58:34.375Z,30
2016-12-01T13:59:34.353Z,30
2016-12-01T14:00:34.357Z,30
2016-12-01T14:01:34.380Z,40
2016-12-01T14:02:35.301Z,40
2016-12-01T14:03:34.387Z,45
2016-12-01T14:04:34.378Z,45
2016-12-01T14:05:34.370Z,45
2016-12-01T14:06:34.367Z,40
2016-12-01T14:07:34.406Z,40
2016-12-01T14:08:34.381Z,45
2016-12-01T14:09:34.409Z,50
2016-12-01T14:10:34.392Z,50
2016-12-01T14:11:34.398Z,50
2016-12-01T14:12:34.493Z,45
2016-12-01T14:13:34.605Z,40
2016-12-01T14:14:35.182Z,35
2016-12-01T14:15:34.467Z,30
2016-12-01T14:16:34.507Z,30
2016-12-01T14:17:34.486Z,30
2016-12-01T14:18:34.545Z,25
2016-12-01T14:19:34.525Z,20
2016-12-01T14:20:34.521Z,25
2016-12-01T14:21:34.372Z,25
2016-12-01T14:22:34.371Z,30
2016-12-01T14:23:34.509Z,30
2016-12-01T14:24:34.499Z,25
2016-12-01T14:25:34.577Z,25
2016-12-01T14:26:34.446Z,30
2016-12-01T14:27:34.523Z,30
2016-12-01T14:28:34.560Z,35
2016-12-01T14:29:34.582Z,25
2016-12-01T14:30:34.357Z,25
2016-12-01T14:31:34.889Z,20
2016-12-01T14:32:34.457Z,15
2016-12-01T14:33:34.521Z,20
2016-12-01T14:34:34.435Z,25
2016-12-01T14:35:34.425Z,25